createdAt,value
2019-05-02T00:03:05.816Z,55.80
2019-05-02T00:11:27.349Z,55.50
2019-05-02T00:15:37.847Z,56.60
2019-05-02T00:19:45.014Z,54.80
2019-05-02T00:23:48.255Z,55.00
2019-05-02T00:27:54.068Z,56.30
2019-05-02T00:31:59.781Z,57.10
2019-05-02T00:36:05.580Z,57.30
2019-05-02T00:40:11.588Z,55.00
2019-05-02T00:44:17.285Z,54.20
2019-05-02T00:48:42.727Z,57.10
2019-05-02T00:52:48.487Z,56.20
2019-05-02T00:56:54.217Z,57.50
2019-05-02T01:01:19.537Z,59.40
2019-05-02T01:05:25.468Z,58.50
2019-05-02T01:09:32.595Z,57.80
2019-05-02T01:13:38.370Z,57.80
2019-05-02T01:17:44.038Z,60.00
2019-05-02T01:21:49.718Z,58.80
2019-05-02T01:25:55.487Z,58.80
2019-05-02T01:30:15.711Z,60.20
2019-05-02T01:34:34.924Z,60.20
2019-05-02T01:38:45.342Z,61.90
2019-05-02T01:42:51.143Z,60.40
2019-05-02T01:46:58.765Z,59.60
2019-05-02T01:51:10.064Z,60.60
2019-05-02T01:55:11.968Z,59.30
2019-05-02T01:59:17.649Z,64.30
2019-05-02T02:03:23.339Z,62.80
2019-05-02T02:07:29.030Z,62.80
2019-05-02T02:11:35.854Z,63.20
2019-05-02T02:15:41.730Z,63.50
2019-05-02T02:19:49.021Z,63.00
2019-05-02T02:24:02.367Z,62.90
2019-05-02T02:28:08.254Z,62.20
2019-05-02T02:32:20.345Z,64.60
2019-05-02T02:36:31.370Z,64.40
2019-05-02T02:40:33.661Z,62.80
2019-05-02T02:44:41.979Z,61.00
2019-05-02T02:48:47.700Z,64.10
2019-05-02T02:52:53.388Z,63.90
2019-05-02T02:56:59.083Z,66.70
2019-05-02T03:01:05.388Z,68.60
2019-05-02T03:05:11.266Z,65.80
2019-05-02T03:09:20.126Z,67.70
2019-05-02T03:13:24.367Z,68.00
2019-05-02T03:17:30.038Z,70.30
2019-05-02T03:21:35.844Z,69.00
2019-05-02T03:25:50.562Z,70.20
2019-05-02T03:29:51.528Z,63.80
2019-05-02T03:34:00.829Z,65.50
2019-05-02T03:38:05.153Z,62.00
2019-05-02T03:42:11.049Z,62.80
2019-05-02T03:46:20.706Z,65.30
2019-05-02T03:50:32.375Z,62.90
2019-05-02T03:54:32.547Z,61.30
2019-05-02T03:58:38.526Z,62.20
2019-05-02T04:02:44.970Z,62.00
2019-05-02T04:06:55.055Z,61.90
2019-05-02T04:11:20.965Z,62.00
2019-05-02T04:15:28.839Z,64.60
2019-05-02T04:19:35.259Z,64.70
2019-05-02T04:23:42.865Z,66.00
2019-05-02T04:27:49.169Z,62.90
2019-05-02T04:31:54.881Z,63.20
2019-05-02T04:36:00.633Z,63.10
2019-05-02T04:40:11.989Z,68.00
2019-05-02T04:44:15.288Z,65.30
2019-05-02T04:48:20.981Z,64.40
2019-05-02T04:52:28.823Z,66.00
2019-05-02T04:56:42.121Z,63.40
2019-05-02T05:00:45.130Z,63.60
2019-05-02T05:04:49.566Z,62.10
2019-05-02T05:08:58.484Z,64.40
2019-05-02T05:13:03.625Z,59.70
2019-05-02T05:17:09.386Z,59.40
2019-05-02T05:21:17.618Z,58.80
2019-05-02T05:25:30.180Z,58.20
2019-05-02T05:29:37.477Z,57.70
2019-05-02T05:33:43.175Z,57.10
2019-05-02T05:37:52.899Z,57.50
2019-05-02T05:41:57.822Z,56.80
2019-05-02T05:46:12.312Z,56.40
2019-05-02T05:50:11.153Z,56.60
2019-05-02T05:54:17.827Z,56.50
2019-05-02T05:58:23.703Z,55.60
2019-05-02T06:02:29.379Z,57.40
2019-05-02T06:06:35.134Z,56.00
2019-05-02T06:10:43.903Z,56.30
2019-05-02T06:14:48.200Z,54.10
2019-05-02T06:18:54.160Z,55.60
2019-05-02T06:23:01.275Z,53.80
2019-05-02T06:27:07.060Z,52.90
2019-05-02T06:31:16.695Z,52.50
2019-05-02T06:35:22.401Z,51.60
2019-05-02T06:39:32.005Z,51.00
2019-05-02T06:43:36.504Z,49.90
2019-05-02T06:47:43.606Z,50.50
2019-05-02T06:51:50.989Z,48.20
2019-05-02T06:55:56.708Z,47.40
2019-05-02T07:00:02.615Z,48.10
2019-05-02T07:04:10.255Z,48.20
2019-05-02T07:08:16.112Z,46.20
2019-05-02T07:12:21.959Z,44.70
2019-05-02T07:16:38.407Z,44.10
2019-05-02T07:20:40.499Z,44.80
2019-05-02T07:24:44.215Z,44.70
2019-05-02T07:28:51.022Z,44.80
2019-05-02T07:33:01.157Z,43.50
2019-05-02T07:37:08.464Z,43.40
2019-05-02T07:41:12.149Z,43.90
2019-05-02T07:45:18.187Z,41.90
2019-05-02T07:49:26.603Z,42.50
2019-05-02T07:53:31.248Z,43.20
2019-05-02T07:57:36.955Z,41.90
2019-05-02T08:01:44.891Z,39.10
2019-05-02T08:05:54.432Z,39.70
2019-05-02T08:09:57.546Z,39.10
2019-05-02T08:14:03.319Z,39.20
2019-05-02T08:18:09.181Z,39.10
2019-05-02T08:22:15.064Z,38.70
2019-05-02T08:26:21.732Z,37.90
2019-05-02T08:30:29.779Z,36.60
2019-05-02T08:34:35.478Z,36.50
2019-05-02T08:38:41.186Z,37.20
2019-05-02T08:42:46.879Z,37.00
2019-05-02T08:46:53.285Z,36.60
2019-05-02T08:50:59.080Z,37.80
2019-05-02T08:55:09.733Z,38.10
2019-05-02T08:59:14.741Z,38.60
2019-05-02T09:03:20.515Z,39.30
2019-05-02T09:07:26.389Z,39.50
2019-05-02T09:11:32.054Z,39.00
2019-05-02T09:15:40.348Z,39.20
2019-05-02T09:19:59.176Z,39.50
2019-05-02T09:23:52.603Z,38.60
2019-05-02T09:27:58.300Z,37.10
2019-05-02T09:32:05.019Z,36.40
2019-05-02T09:36:11.894Z,35.60
2019-05-02T09:40:17.974Z,34.70
2019-05-02T09:44:23.666Z,35.70
2019-05-02T09:48:29.364Z,36.00
2019-05-02T09:52:39.592Z,35.90
2019-05-02T09:56:43.121Z,36.40
2019-05-02T10:00:56.256Z,36.50
2019-05-02T10:05:02.028Z,35.60
2019-05-02T10:09:11.918Z,34.40
2019-05-02T10:13:17.290Z,33.80
2019-05-02T10:17:28.791Z,31.90
2019-05-02T10:21:34.687Z,31.90
2019-05-02T10:26:20.086Z,31.10
2019-05-02T10:30:25.637Z,32.20
2019-05-02T10:34:32.975Z,32.10
2019-05-02T10:38:38.825Z,33.40
2019-05-02T10:42:44.531Z,34.10
2019-05-02T10:46:57.741Z,34.50
2019-05-02T10:51:25.587Z,32.00
2019-05-02T10:55:28.600Z,31.60
2019-05-02T10:59:34.290Z,32.30
2019-05-02T11:03:47.434Z,33.50
2019-05-02T11:07:52.361Z,35.20
2019-05-02T11:12:02.576Z,36.00
2019-05-02T11:16:15.441Z,36.30
2019-05-02T11:24:44.437Z,34.40
2019-05-02T11:28:52.001Z,33.00
2019-05-02T11:32:58.778Z,32.70
2019-05-02T11:37:04.731Z,33.20
2019-05-02T11:41:11.924Z,34.10
2019-05-02T11:45:17.795Z,35.00
2019-05-02T11:49:23.530Z,35.60
2019-05-02T11:53:29.650Z,34.50
2019-05-02T11:57:35.382Z,34.50
2019-05-02T12:01:42.729Z,35.60
2019-05-02T12:05:49.443Z,32.80
2019-05-02T12:14:48.976Z,32.40
2019-05-02T12:19:08.190Z,33.50
2019-05-02T12:23:02.228Z,32.60
2019-05-02T12:27:08.057Z,33.70
2019-05-02T12:31:22.160Z,34.60
2019-05-02T12:35:27.818Z,35.00
2019-05-02T12:39:33.513Z,35.10
2019-05-02T12:43:39.204Z,37.00
2019-05-02T12:47:45.128Z,36.80
2019-05-02T12:51:52.437Z,34.60
2019-05-02T12:55:58.325Z,34.00
2019-05-02T13:00:08.146Z,34.50
2019-05-02T13:04:14.314Z,35.10
2019-05-02T13:08:21.921Z,34.80
2019-05-02T13:12:29.085Z,29.90
2019-05-02T13:16:34.796Z,28.80
2019-05-02T13:20:41.740Z,27.60
2019-05-02T13:24:54.961Z,28.80
2019-05-02T13:28:59.657Z,30.20
2019-05-02T13:33:07.154Z,29.30
2019-05-02T13:42:18.359Z,26.80
2019-05-02T13:46:26.764Z,28.50
2019-05-02T13:50:31.831Z,29.50
2019-05-02T13:54:38.360Z,29.50
2019-05-02T13:58:44.015Z,29.30
2019-05-02T14:02:51.886Z,27.20
2019-05-02T14:06:57.309Z,29.90
2019-05-02T14:11:05.524Z,31.80
2019-05-02T14:15:13.834Z,30.20
2019-05-02T14:19:19.654Z,29.50
2019-05-02T14:23:27.102Z,27.30
2019-05-02T14:27:32.920Z,27.50
2019-05-02T14:31:38.609Z,27.30
2019-05-02T14:35:46.363Z,27.60
2019-05-02T14:39:53.698Z,28.30
2019-05-02T14:43:59.466Z,29.20
2019-05-02T14:48:18.416Z,29.90
2019-05-02T14:52:13.027Z,30.70
2019-05-02T17:37:22.675Z,71.70
2019-05-02T17:41:28.350Z,71.40
2019-05-02T17:45:38.491Z,72.40
2019-05-02T17:49:42.309Z,72.70
2019-05-02T17:53:57.248Z,73.40
2019-05-02T17:58:04.570Z,71.60
2019-05-02T18:02:12.442Z,71.90
2019-05-02T18:06:30.110Z,72.20
2019-05-02T18:10:25.678Z,70.40
2019-05-02T18:14:31.355Z,70.20
2019-05-02T18:18:46.746Z,70.90
2019-05-02T18:22:51.939Z,70.20
2019-05-02T18:26:57.888Z,71.90
2019-05-02T18:31:05.832Z,70.60
2019-05-02T18:35:12.712Z,69.60
2019-05-02T18:39:18.555Z,69.00
2019-05-02T18:43:24.305Z,68.70
2019-05-02T18:47:30.002Z,68.50
2019-05-02T18:51:35.746Z,67.00
2019-05-02T18:55:42.205Z,67.90
2019-05-02T18:59:52.080Z,68.50
2019-05-02T19:03:56.684Z,67.80
2019-05-02T19:08:02.677Z,67.10
2019-05-02T19:12:41.913Z,67.20
2019-05-02T19:16:47.540Z,68.70
2019-05-02T19:23:22.603Z,66.70
2019-05-02T19:27:30.095Z,68.20
2019-05-02T19:31:44.332Z,70.20
2019-05-02T19:35:46.938Z,72.30
2019-05-02T19:44:11.941Z,75.30
2019-05-02T19:48:22.850Z,75.20
2019-05-02T19:52:38.608Z,76.30
2019-05-02T19:56:52.384Z,76.70
2019-05-02T20:00:57.959Z,77.60
2019-05-02T20:05:04.293Z,76.50
2019-05-02T20:09:10.617Z,76.40
2019-05-02T20:13:20.283Z,76.20
2019-05-02T20:17:33.146Z,75.60
2019-05-02T20:22:24.349Z,77.80
2019-05-02T20:26:32.391Z,76.30
2019-05-02T20:30:38.042Z,78.60
2019-05-02T20:34:43.752Z,76.40
2019-05-02T20:38:49.543Z,75.40
2019-05-02T20:42:55.843Z,75.30
2019-05-02T20:47:02.563Z,77.50
2019-05-02T20:51:08.333Z,77.30
2019-05-02T20:55:14.597Z,79.10
2019-05-02T20:59:21.815Z,80.00
2019-05-02T21:03:27.684Z,76.50
2019-05-02T21:07:42.300Z,76.30
2019-05-02T21:11:49.829Z,76.60
2019-05-02T21:15:56.072Z,81.10
2019-05-02T21:20:02.046Z,80.30
2019-05-02T21:24:07.916Z,78.50
2019-05-02T21:28:13.618Z,78.20
2019-05-02T21:32:19.313Z,81.60
2019-05-02T21:36:25.972Z,80.00
2019-05-02T21:40:32.694Z,80.90
2019-05-02T21:44:38.542Z,79.30
2019-05-02T21:48:44.297Z,79.50
2019-05-02T21:53:07.307Z,79.70
2019-05-02T21:57:14.640Z,79.30
2019-05-02T22:01:22.228Z,78.00
2019-05-02T22:05:27.989Z,77.70
2019-05-02T22:09:33.742Z,80.20
2019-05-02T22:13:39.433Z,82.80
2019-05-02T22:21:53.620Z,84.50
2019-05-02T22:25:59.363Z,86.90
2019-05-02T22:30:07.899Z,87.40
2019-05-02T22:34:13.581Z,88.90
2019-05-02T22:38:37.030Z,86.20
2019-05-02T22:42:42.856Z,85.20
2019-05-02T22:46:48.628Z,84.40
2019-05-02T22:50:54.337Z,80.90
2019-05-02T22:55:00.023Z,81.50
2019-05-02T22:59:06.822Z,81.30
2019-05-02T23:03:12.797Z,79.30
2019-05-02T23:07:18.491Z,80.50
2019-05-02T23:11:24.528Z,80.90
2019-05-02T23:15:31.991Z,79.90
2019-05-02T23:19:37.879Z,77.80
2019-05-02T23:23:43.589Z,80.90
2019-05-02T23:27:51.887Z,81.40
2019-05-02T23:31:57.597Z,83.60
2019-05-02T23:36:03.342Z,84.10
2019-05-02T23:40:09.359Z,81.90
2019-05-02T23:44:15.048Z,81.30
2019-05-02T23:48:22.072Z,82.00
2019-05-02T23:52:27.776Z,80.60
2019-05-02T23:56:33.609Z,80.80
